createdAt,value
2023-05-01T00:00:13.688Z,0.00
2023-05-01T00:01:13.653Z,0.00
2023-05-01T00:02:13.710Z,0.00
2023-05-01T00:03:13.818Z,0.00
2023-05-01T00:04:13.795Z,0.00
2023-05-01T00:05:13.673Z,0.00
2023-05-01T00:06:13.649Z,0.00
2023-05-01T00:07:13.604Z,0.00
2023-05-01T00:08:13.597Z,0.00
2023-05-01T00:09:13.578Z,0.00
2023-05-01T00:10:13.558Z,0.00
2023-05-01T00:11:13.544Z,0.00
2023-05-01T00:12:13.668Z,0.00
2023-05-01T00:13:13.543Z,0.00
2023-05-01T00:14:13.543Z,0.00
2023-05-01T00:15:13.496Z,0.00
2023-05-01T00:16:13.617Z,0.00
2023-05-01T00:17:13.474Z,0.00
2023-05-01T00:18:13.538Z,0.00
2023-05-01T00:19:13.456Z,0.00
2023-05-01T00:20:13.448Z,0.00
2023-05-01T00:21:13.469Z,0.00
2023-05-01T00:22:13.425Z,0.00
2023-05-01T00:23:13.421Z,0.00
2023-05-01T00:24:13.407Z,0.00
2023-05-01T00:25:13.393Z,0.00
2023-05-01T00:26:13.417Z,0.00
2023-05-01T00:27:13.394Z,0.00
2023-05-01T00:28:13.386Z,0.00
2023-05-01T00:29:13.345Z,0.00
2023-05-01T00:30:13.357Z,0.00
2023-05-01T00:31:13.363Z,0.00
2023-05-01T00:32:13.365Z,0.00
2023-05-01T00:33:13.302Z,0.00
2023-05-01T00:34:13.299Z,0.00
2023-05-01T00:35:13.292Z,0.00
2023-05-01T00:36:13.279Z,0.00
2023-05-01T00:37:13.304Z,0.00
2023-05-01T00:38:13.263Z,0.00
2023-05-01T00:39:13.254Z,0.00
2023-05-01T00:40:13.232Z,0.00
2023-05-01T00:41:13.274Z,0.00
2023-05-01T00:42:13.218Z,0.00
2023-05-01T00:43:13.212Z,0.00
2023-05-01T00:44:13.211Z,0.00
2023-05-01T00:45:13.180Z,0.00
2023-05-01T00:46:13.258Z,0.00
2023-05-01T00:47:13.170Z,0.00
2023-05-01T00:48:13.169Z,0.00
2023-05-01T00:49:13.136Z,0.00
2023-05-01T00:50:13.122Z,0.00
2023-05-01T00:51:13.117Z,0.00
2023-05-01T00:52:13.130Z,0.00
2023-05-01T00:53:13.112Z,0.00
2023-05-01T00:54:13.110Z,0.00
2023-05-01T00:55:13.077Z,0.00
2023-05-01T00:56:13.067Z,0.00
2023-05-01T00:57:13.108Z,0.00
2023-05-01T00:58:13.035Z,0.00
2023-05-01T00:59:13.025Z,0.00
2023-05-01T01:00:13.031Z,0.00
2023-05-01T01:01:13.108Z,0.00
2023-05-01T01:02:13.002Z,0.00
2023-05-01T01:03:12.988Z,0.00
2023-05-01T01:04:13.027Z,0.00
2023-05-01T01:05:12.965Z,0.00
2023-05-01T01:06:12.944Z,0.00
2023-05-01T01:07:12.944Z,0.00
2023-05-01T01:08:12.950Z,0.00
2023-05-01T01:09:12.922Z,0.00
2023-05-01T01:10:12.926Z,0.00
2023-05-01T01:11:12.899Z,0.00
2023-05-01T01:12:12.885Z,0.00
2023-05-01T01:13:12.878Z,0.00
2023-05-01T01:14:12.886Z,0.00
2023-05-01T01:15:12.880Z,0.00
2023-05-01T01:16:12.899Z,0.00
2023-05-01T01:17:13.015Z,0.00
2023-05-01T01:18:12.900Z,0.00
2023-05-01T01:19:12.811Z,0.00
2023-05-01T01:20:12.820Z,0.00
2023-05-01T01:21:12.790Z,0.00
2023-05-01T01:22:12.779Z,0.00
2023-05-01T01:23:12.766Z,0.00
2023-05-01T01:24:12.753Z,0.00
2023-05-01T01:25:12.777Z,0.00
2023-05-01T01:26:12.734Z,0.00
2023-05-01T01:27:12.744Z,0.00
2023-05-01T01:28:12.713Z,0.00
2023-05-01T01:29:12.717Z,0.00
2023-05-01T01:30:12.686Z,0.00
2023-05-01T01:31:12.744Z,0.00
2023-05-01T01:32:12.697Z,0.00
2023-05-01T01:33:12.656Z,0.00
2023-05-01T01:34:12.652Z,0.00
2023-05-01T01:35:12.642Z,0.00
2023-05-01T01:36:12.644Z,0.00
2023-05-01T01:37:12.620Z,0.00
2023-05-01T01:38:12.605Z,0.00
2023-05-01T01:39:12.601Z,0.00
2023-05-01T01:40:12.593Z,0.00
2023-05-01T01:41:12.652Z,0.00
2023-05-01T01:42:12.569Z,0.00
2023-05-01T01:43:12.547Z,0.00
2023-05-01T01:44:12.534Z,0.00
2023-05-01T01:45:12.530Z,0.00
2023-05-01T01:46:12.579Z,0.00
2023-05-01T01:47:12.540Z,0.00
2023-05-01T01:48:12.585Z,0.00
2023-05-01T01:49:12.487Z,0.00
2023-05-01T01:50:12.488Z,0.00
2023-05-01T01:51:12.467Z,0.00
2023-05-01T01:52:12.445Z,0.00
2023-05-01T01:53:12.440Z,0.00
2023-05-01T01:54:12.422Z,0.00
2023-05-01T01:55:12.441Z,0.00
2023-05-01T01:56:12.410Z,0.00
2023-05-01T01:57:12.391Z,0.00
2023-05-01T01:58:12.389Z,0.00
2023-05-01T01:59:12.440Z,0.00
2023-05-01T02:00:12.385Z,0.00
2023-05-01T02:01:12.396Z,0.00
2023-05-01T02:02:12.430Z,0.00
2023-05-01T02:03:12.431Z,0.00
2023-05-01T02:04:12.401Z,0.00
2023-05-01T02:05:12.328Z,0.00
2023-05-01T02:06:12.337Z,0.00
2023-05-01T02:07:12.304Z,0.00
2023-05-01T02:08:12.271Z,0.00
2023-05-01T02:09:12.262Z,0.00
2023-05-01T02:10:12.267Z,0.00
2023-05-01T02:11:12.240Z,0.00
2023-05-01T02:12:12.257Z,0.00
2023-05-01T02:13:12.227Z,0.00
2023-05-01T02:14:12.220Z,0.00
2023-05-01T02:15:12.200Z,0.00
2023-05-01T02:16:12.218Z,0.00
2023-05-01T02:17:12.185Z,0.00
2023-05-01T02:18:12.158Z,0.00
2023-05-01T02:19:12.154Z,0.00
2023-05-01T02:20:12.185Z,0.00
2023-05-01T02:21:12.155Z,0.00
2023-05-01T02:22:12.122Z,0.00
2023-05-01T02:23:12.113Z,0.00
2023-05-01T02:24:12.109Z,0.00
2023-05-01T02:25:12.130Z,0.00
2023-05-01T02:26:12.075Z,0.00
2023-05-01T02:27:12.093Z,0.00
2023-05-01T02:28:12.058Z,0.00
2023-05-01T02:29:12.049Z,0.00
2023-05-01T02:30:12.038Z,0.00
2023-05-01T02:31:12.057Z,0.00
2023-05-01T02:32:12.034Z,0.00
2023-05-01T02:33:12.008Z,0.00
2023-05-01T02:34:11.985Z,0.00
2023-05-01T02:35:11.984Z,0.00
2023-05-01T02:36:11.986Z,0.00
2023-05-01T02:37:11.989Z,0.00
2023-05-01T02:38:11.942Z,0.00
2023-05-01T02:39:11.934Z,0.00
2023-05-01T02:40:11.923Z,0.00
2023-05-01T02:41:11.944Z,0.00
2023-05-01T02:42:11.947Z,0.00
2023-05-01T02:43:11.917Z,0.00
2023-05-01T02:44:11.875Z,0.00
2023-05-01T02:45:11.875Z,0.00
2023-05-01T02:46:11.885Z,0.00
2023-05-01T02:47:11.905Z,0.00
2023-05-01T02:48:11.926Z,0.00
2023-05-01T02:49:11.826Z,0.00
2023-05-01T02:50:11.811Z,0.00
2023-05-01T02:51:11.812Z,0.00
2023-05-01T02:52:11.850Z,0.00
2023-05-01T02:53:11.810Z,0.00
2023-05-01T02:54:11.774Z,0.00
2023-05-01T02:55:11.764Z,0.00
2023-05-01T02:56:11.752Z,0.00
2023-05-01T02:57:11.747Z,0.00
2023-05-01T02:58:11.757Z,0.00
2023-05-01T02:59:11.722Z,0.00
2023-05-01T03:00:11.706Z,0.00
2023-05-01T03:01:11.765Z,0.00
2023-05-01T03:02:11.685Z,0.00
2023-05-01T03:03:11.750Z,0.00
2023-05-01T03:04:11.807Z,0.00
2023-05-01T03:05:11.649Z,0.00
2023-05-01T03:06:11.689Z,0.00
2023-05-01T03:07:11.643Z,0.00
2023-05-01T03:08:11.710Z,0.00
2023-05-01T03:09:11.654Z,0.00
2023-05-01T03:10:11.594Z,0.00
2023-05-01T03:11:11.582Z,0.00
2023-05-01T03:12:11.577Z,0.00
2023-05-01T03:13:11.600Z,0.00
2023-05-01T03:14:11.594Z,0.00
2023-05-01T03:15:11.563Z,0.00
2023-05-01T03:16:11.572Z,0.00
2023-05-01T03:17:11.528Z,0.00
2023-05-01T03:18:11.588Z,0.00
2023-05-01T03:19:11.523Z,4.00
2023-05-01T03:20:11.485Z,0.00
2023-05-01T03:21:11.521Z,0.00
2023-05-01T03:22:11.470Z,4.00
2023-05-01T03:23:11.453Z,0.00
2023-05-01T03:24:11.478Z,0.00
2023-05-01T03:25:11.442Z,4.00
2023-05-01T03:26:11.455Z,4.00
2023-05-01T03:27:11.423Z,4.00
2023-05-01T03:28:11.408Z,4.00
2023-05-01T03:29:11.390Z,4.00
2023-05-01T03:30:11.405Z,0.00
2023-05-01T03:31:11.406Z,4.00
2023-05-01T03:32:11.408Z,4.00
2023-05-01T03:33:11.437Z,4.00
2023-05-01T03:34:11.347Z,4.00
2023-05-01T03:35:11.415Z,8.00
2023-05-01T03:36:11.331Z,4.00
2023-05-01T03:37:11.301Z,8.00
2023-05-01T03:38:11.292Z,8.00
2023-05-01T03:39:11.294Z,4.00
2023-05-01T03:40:11.399Z,8.00
2023-05-01T03:41:11.284Z,8.00
2023-05-01T03:42:11.243Z,12.00
2023-05-01T03:43:11.260Z,8.00
2023-05-01T03:44:11.227Z,12.00
2023-05-01T03:45:11.236Z,12.00
2023-05-01T03:46:11.295Z,12.00
2023-05-01T03:47:11.194Z,12.00
2023-05-01T03:48:11.198Z,16.00
2023-05-01T03:49:11.182Z,16.00
2023-05-01T03:50:11.172Z,16.00
2023-05-01T03:51:11.189Z,20.00
2023-05-01T03:52:11.140Z,20.00
2023-05-01T03:53:11.147Z,20.00
2023-05-01T03:54:11.115Z,20.00
2023-05-01T03:55:11.120Z,24.00
2023-05-01T03:56:11.212Z,24.00
2023-05-01T03:57:11.122Z,24.00
2023-05-01T03:58:11.073Z,28.00
2023-05-01T03:59:11.068Z,28.00
2023-05-01T04:00:11.048Z,28.00
2023-05-01T04:01:11.063Z,32.00
2023-05-01T04:02:11.102Z,32.00
2023-05-01T04:03:11.076Z,32.00
2023-05-01T04:04:11.203Z,32.00
2023-05-01T04:05:11.014Z,32.00
2023-05-01T04:06:10.998Z,36.00
2023-05-01T04:07:10.995Z,36.00
2023-05-01T04:08:10.996Z,36.00
2023-05-01T04:09:10.961Z,36.00
2023-05-01T04:10:10.975Z,36.00
2023-05-01T04:11:10.946Z,40.00
2023-05-01T04:12:10.955Z,44.00
2023-05-01T04:13:10.928Z,40.00
2023-05-01T04:14:10.905Z,40.00
2023-05-01T04:15:10.918Z,44.00
2023-05-01T04:16:11.040Z,48.00
2023-05-01T04:17:10.877Z,48.00
2023-05-01T04:18:10.960Z,48.00
2023-05-01T04:19:10.854Z,48.00
2023-05-01T04:20:10.832Z,48.00
2023-05-01T04:21:10.826Z,48.00
2023-05-01T04:22:10.826Z,52.00
2023-05-01T04:23:10.809Z,56.00
2023-05-01T04:24:10.829Z,56.00
2023-05-01T04:25:10.789Z,56.00
2023-05-01T04:26:10.776Z,60.00
2023-05-01T04:27:10.768Z,56.00
2023-05-01T04:28:10.902Z,56.00
2023-05-01T04:29:10.739Z,56.00
2023-05-01T04:30:10.736Z,60.00
2023-05-01T04:31:10.787Z,64.00
2023-05-01T04:32:10.707Z,68.00
2023-05-01T04:33:10.749Z,64.00
2023-05-01T04:34:10.728Z,68.00
2023-05-01T04:35:10.678Z,64.00
2023-05-01T04:36:10.655Z,68.00
2023-05-01T04:37:10.653Z,68.00
2023-05-01T04:38:10.860Z,68.00
2023-05-01T04:39:10.668Z,72.00
2023-05-01T04:40:11.691Z,72.00
2023-05-01T04:41:10.602Z,72.00
2023-05-01T04:42:10.613Z,76.00
2023-05-01T04:43:10.593Z,72.00
2023-05-01T04:44:10.697Z,72.00
2023-05-01T04:45:10.567Z,76.00
2023-05-01T04:46:10.616Z,76.00
2023-05-01T04:47:10.654Z,76.00
2023-05-01T04:48:10.568Z,76.00
2023-05-01T04:49:10.520Z,76.00
2023-05-01T04:50:10.528Z,76.00
2023-05-01T04:51:10.536Z,76.00
2023-05-01T04:52:10.486Z,76.00
2023-05-01T04:53:10.482Z,80.00
2023-05-01T04:54:10.461Z,80.00
2023-05-01T04:55:10.468Z,84.00
2023-05-01T04:56:10.465Z,80.00
2023-05-01T04:57:10.467Z,80.00
2023-05-01T04:58:10.427Z,84.00
2023-05-01T04:59:10.424Z,88.00
2023-05-01T05:00:10.425Z,88.00
2023-05-01T05:01:10.471Z,92.00
2023-05-01T05:02:10.382Z,92.00
2023-05-01T05:03:10.514Z,96.00
2023-05-01T05:04:10.399Z,104.00
2023-05-01T05:05:10.353Z,104.00
2023-05-01T05:06:10.383Z,104.00
2023-05-01T05:07:10.341Z,104.00
2023-05-01T05:08:10.327Z,104.00
2023-05-01T05:09:10.357Z,108.00
2023-05-01T05:10:10.318Z,112.00
2023-05-01T05:11:10.300Z,108.00
2023-05-01T05:12:10.277Z,108.00
2023-05-01T05:13:10.270Z,112.00
2023-05-01T05:14:10.252Z,116.00
2023-05-01T05:15:10.265Z,116.00
2023-05-01T05:16:10.285Z,116.00
2023-05-01T05:17:10.229Z,120.00
2023-05-01T05:18:10.270Z,116.00
2023-05-01T05:19:10.196Z,120.00
2023-05-01T05:20:10.188Z,120.00
2023-05-01T05:21:10.203Z,124.00
2023-05-01T05:22:10.192Z,124.00
2023-05-01T05:23:10.166Z,128.00
2023-05-01T05:24:10.156Z,128.00
2023-05-01T05:25:10.154Z,128.00
2023-05-01T05:26:10.126Z,132.00
2023-05-01T05:27:10.132Z,136.00
2023-05-01T05:28:10.113Z,132.00
2023-05-01T05:29:10.087Z,136.00
2023-05-01T05:30:10.086Z,132.00
2023-05-01T05:31:10.096Z,136.00
2023-05-01T05:32:10.153Z,128.00
2023-05-01T05:33:10.113Z,132.00
2023-05-01T05:34:10.040Z,132.00
2023-05-01T05:35:10.027Z,128.00
2023-05-01T05:36:10.055Z,140.00
2023-05-01T05:37:10.012Z,136.00
2023-05-01T05:38:10.029Z,140.00
2023-05-01T05:39:09.992Z,140.00
2023-05-01T05:40:09.982Z,144.00
2023-05-01T05:41:10.022Z,148.00
2023-05-01T05:42:09.957Z,144.00
2023-05-01T05:43:09.965Z,148.00
2023-05-01T05:44:09.940Z,144.00
2023-05-01T05:45:09.936Z,148.00
2023-05-01T05:46:09.972Z,144.00
2023-05-01T05:47:09.933Z,148.00
2023-05-01T05:48:10.009Z,148.00
2023-05-01T05:49:09.936Z,152.00
2023-05-01T05:50:09.914Z,152.00
2023-05-01T05:51:09.891Z,156.00
2023-05-01T05:52:09.882Z,160.00
2023-05-01T05:53:09.861Z,172.00
2023-05-01T05:54:09.830Z,164.00
2023-05-01T05:55:09.813Z,164.00
2023-05-01T05:56:09.831Z,168.00
2023-05-01T05:57:09.843Z,164.00
2023-05-01T05:58:09.797Z,168.00
2023-05-01T05:59:09.784Z,168.00
2023-05-01T06:00:09.768Z,172.00
2023-05-01T06:01:09.764Z,176.00
2023-05-01T06:02:09.803Z,168.00
2023-05-01T06:03:09.832Z,172.00
2023-05-01T06:04:09.756Z,172.00
2023-05-01T06:05:09.878Z,176.00
2023-05-01T06:06:10.188Z,168.00
2023-05-01T06:07:09.710Z,172.00
2023-05-01T06:08:09.699Z,176.00
2023-05-01T06:09:09.665Z,176.00
2023-05-01T06:10:09.662Z,180.00
2023-05-01T06:11:09.649Z,184.00
2023-05-01T06:12:09.637Z,184.00
2023-05-01T06:13:14.116Z,188.00
2023-05-01T06:14:10.633Z,188.00
2023-05-01T06:15:09.605Z,192.00
2023-05-01T06:16:09.652Z,192.00
2023-05-01T06:17:09.576Z,196.00
2023-05-01T06:18:09.616Z,196.00
2023-05-01T06:19:09.557Z,200.00
2023-05-01T06:20:09.569Z,200.00
2023-05-01T06:21:09.538Z,196.00
2023-05-01T06:22:09.548Z,200.00
2023-05-01T06:23:09.671Z,200.00
2023-05-01T06:24:09.513Z,204.00
2023-05-01T06:25:09.495Z,212.00
2023-05-01T06:26:09.488Z,220.00
2023-05-01T06:27:09.489Z,220.00
2023-05-01T06:28:09.486Z,228.00
2023-05-01T06:29:09.473Z,228.00
2023-05-01T06:30:09.441Z,228.00
2023-05-01T06:31:09.547Z,224.00
2023-05-01T06:32:09.427Z,232.00
2023-05-01T06:33:09.496Z,228.00
2023-05-01T06:34:09.399Z,228.00
2023-05-01T06:35:09.411Z,228.00
2023-05-01T06:36:09.406Z,232.00
2023-05-01T06:37:09.381Z,228.00
2023-05-01T06:38:09.357Z,232.00
2023-05-01T06:39:09.357Z,236.00
2023-05-01T06:40:09.350Z,232.00
2023-05-01T06:41:09.342Z,232.00
2023-05-01T06:42:09.336Z,232.00
2023-05-01T06:43:09.316Z,240.00
2023-05-01T06:44:09.293Z,244.00
2023-05-01T06:45:09.270Z,252.00
2023-05-01T06:46:09.340Z,252.00
2023-05-01T06:47:09.345Z,252.00
2023-05-01T06:48:09.293Z,248.00
2023-05-01T06:49:09.229Z,252.00
2023-05-01T06:50:09.254Z,248.00
2023-05-01T06:51:09.215Z,264.00
2023-05-01T06:52:09.228Z,272.00
2023-05-01T06:53:09.219Z,264.00
2023-05-01T06:54:09.188Z,268.00
2023-05-01T06:55:09.177Z,272.00
2023-05-01T06:56:09.179Z,284.00
2023-05-01T06:57:09.179Z,280.00
2023-05-01T06:58:19.909Z,284.00
2023-05-01T06:59:10.116Z,300.00
2023-05-01T07:00:09.138Z,300.00
2023-05-01T07:01:09.137Z,300.00
2023-05-01T07:02:09.198Z,304.00
2023-05-01T07:03:09.108Z,312.00
2023-05-01T07:04:09.074Z,312.00
2023-05-01T07:05:09.077Z,316.00
2023-05-01T07:06:09.146Z,320.00
2023-05-01T07:07:09.030Z,324.00
2023-05-01T07:08:09.050Z,328.00
2023-05-01T07:09:09.012Z,328.00
2023-05-01T07:10:09.038Z,328.00
2023-05-01T07:11:08.995Z,320.00
2023-05-01T07:12:08.986Z,324.00
2023-05-01T07:13:08.969Z,320.00
2023-05-01T07:14:08.976Z,316.00
2023-05-01T07:15:08.975Z,312.00
2023-05-01T07:16:08.964Z,304.00
2023-05-01T07:17:08.954Z,316.00
2023-05-01T07:18:09.056Z,332.00
2023-05-01T07:19:08.907Z,336.00
2023-05-01T07:20:08.907Z,324.00
2023-05-01T07:21:08.914Z,348.00
2023-05-01T07:22:08.871Z,368.00
2023-05-01T07:23:08.872Z,388.00
2023-05-01T07:24:08.880Z,388.00
2023-05-01T07:25:08.846Z,388.00
2023-05-01T07:26:08.860Z,384.00
2023-05-01T07:27:08.812Z,396.00
2023-05-01T07:28:08.845Z,404.00
2023-05-01T07:29:08.806Z,424.00
2023-05-01T07:30:08.794Z,436.00
2023-05-01T07:31:08.783Z,440.00
2023-05-01T07:32:08.867Z,456.00
2023-05-01T07:33:08.820Z,460.00
2023-05-01T07:34:08.773Z,472.00
2023-05-01T07:35:08.740Z,480.00
2023-05-01T07:36:08.755Z,500.00
2023-05-01T07:37:08.711Z,520.00
2023-05-01T07:38:08.735Z,512.00
2023-05-01T07:39:08.711Z,512.00
2023-05-01T07:40:08.706Z,516.00
2023-05-01T07:41:08.671Z,516.00
2023-05-01T07:42:08.659Z,528.00
2023-05-01T07:43:08.658Z,556.00
2023-05-01T07:44:08.657Z,568.00
2023-05-01T07:45:08.620Z,612.00
2023-05-01T07:46:08.703Z,620.00
2023-05-01T07:47:08.624Z,636.00
2023-05-01T07:48:08.757Z,636.00
2023-05-01T07:49:08.577Z,636.00
2023-05-01T07:50:08.565Z,624.00
2023-05-01T07:51:08.555Z,608.00
2023-05-01T07:52:08.579Z,612.00
2023-05-01T07:53:08.539Z,612.00
2023-05-01T07:54:08.525Z,608.00
2023-05-01T07:55:08.515Z,596.00
2023-05-01T07:56:08.638Z,576.00
2023-05-01T07:57:08.501Z,576.00
2023-05-01T07:58:08.504Z,596.00
2023-05-01T07:59:08.499Z,592.00
2023-05-01T08:00:08.465Z,604.00
2023-05-01T08:01:08.443Z,600.00
2023-05-01T08:02:08.508Z,612.00
2023-05-01T08:03:08.705Z,624.00
2023-05-01T08:04:08.560Z,644.00
2023-05-01T08:05:08.403Z,652.00
2023-05-01T08:06:08.479Z,664.00
2023-05-01T08:07:08.379Z,672.00
2023-05-01T08:08:08.375Z,664.00
2023-05-01T08:09:08.400Z,660.00
2023-05-01T08:10:08.352Z,632.00
2023-05-01T08:11:08.334Z,620.00
2023-05-01T08:12:08.384Z,636.00
2023-05-01T08:13:08.313Z,692.00
2023-05-01T08:14:08.331Z,684.00
2023-05-01T08:15:08.294Z,724.00
2023-05-01T08:16:08.322Z,728.00
2023-05-01T08:17:08.281Z,732.00
2023-05-01T08:18:08.296Z,768.00
2023-05-01T08:19:08.285Z,788.00
2023-05-01T08:20:08.255Z,748.00
2023-05-01T08:21:08.234Z,696.00
2023-05-01T08:22:08.247Z,692.00
2023-05-01T08:23:08.207Z,708.00
2023-05-01T08:24:08.201Z,720.00
2023-05-01T08:25:08.192Z,732.00
2023-05-01T08:26:08.212Z,756.00
2023-05-01T08:27:08.165Z,748.00
2023-05-01T08:28:08.183Z,764.00
2023-05-01T08:29:08.147Z,860.00
2023-05-01T08:30:08.194Z,3108.00
2023-05-01T08:31:08.141Z,1432.00
2023-05-01T08:32:08.116Z,748.00
2023-05-01T08:33:08.146Z,812.00
2023-05-01T08:34:08.085Z,788.00
2023-05-01T08:35:08.098Z,1148.00
2023-05-01T08:36:08.067Z,928.00
2023-05-01T08:37:08.052Z,1016.00
2023-05-01T08:38:08.069Z,800.00
2023-05-01T08:39:08.037Z,800.00
2023-05-01T08:40:08.034Z,772.00
2023-05-01T08:41:08.019Z,3652.00
2023-05-01T08:42:08.012Z,1264.00
2023-05-01T08:43:08.022Z,1492.00
2023-05-01T08:44:08.007Z,6984.00
2023-05-01T08:45:07.990Z,168.00
2023-05-01T08:46:08.016Z,924.00
2023-05-01T08:47:08.193Z,796.00
2023-05-01T08:48:08.099Z,772.00
2023-05-01T08:49:07.924Z,832.00
2023-05-01T08:50:07.921Z,840.00
2023-05-01T08:51:07.943Z,1056.00
2023-05-01T08:52:07.914Z,1596.00
2023-05-01T08:53:07.884Z,1188.00
2023-05-01T08:54:07.870Z,996.00
2023-05-01T08:55:07.862Z,1636.00
2023-05-01T08:56:07.880Z,2636.00
2023-05-01T08:57:10.249Z,14952.00
2023-05-01T08:58:07.841Z,1040.00
2023-05-01T08:59:07.839Z,844.00
2023-05-01T09:00:07.826Z,1084.00
2023-05-01T09:01:07.855Z,1696.00
2023-05-01T09:02:08.048Z,4880.00
2023-05-01T09:03:07.948Z,12284.00
2023-05-01T09:04:07.834Z,5876.00
2023-05-01T09:05:07.758Z,2868.00
2023-05-01T09:06:07.816Z,12764.00
2023-05-01T09:07:07.743Z,13592.00
2023-05-01T09:08:07.717Z,1420.00
2023-05-01T09:09:07.708Z,1664.00
2023-05-01T09:10:07.703Z,1156.00
2023-05-01T09:11:07.678Z,1144.00
2023-05-01T09:12:07.688Z,996.00
2023-05-01T09:13:07.684Z,1284.00
2023-05-01T09:14:07.654Z,1068.00
2023-05-01T09:15:07.697Z,1048.00
2023-05-01T09:16:07.750Z,1096.00
2023-05-01T09:17:07.617Z,1120.00
2023-05-01T09:18:07.715Z,1080.00
2023-05-01T09:19:07.626Z,1892.00
2023-05-01T09:20:07.709Z,1564.00
2023-05-01T09:21:07.571Z,1860.00
2023-05-01T09:22:07.568Z,1436.00
2023-05-01T09:23:07.565Z,1644.00
2023-05-01T09:24:07.561Z,2148.00
2023-05-01T09:25:07.537Z,1500.00
2023-05-01T09:26:07.528Z,3172.00
2023-05-01T09:27:07.512Z,6260.00
2023-05-01T09:28:07.542Z,9160.00
2023-05-01T09:29:07.490Z,7080.00
2023-05-01T09:30:07.500Z,10180.00
2023-05-01T09:31:07.478Z,9632.00
2023-05-01T09:32:07.547Z,12208.00
2023-05-01T09:33:07.533Z,12912.00
2023-05-01T09:34:07.451Z,11508.00
2023-05-01T09:35:07.440Z,6672.00
2023-05-01T09:36:07.411Z,8324.00
2023-05-01T09:37:07.403Z,7320.00
2023-05-01T09:38:07.411Z,21920.00
2023-05-01T09:39:07.410Z,19392.00
2023-05-01T09:40:07.402Z,8940.00
2023-05-01T09:41:07.364Z,9636.00
2023-05-01T09:42:07.342Z,9664.00
2023-05-01T09:43:07.335Z,23136.00
2023-05-01T09:44:07.347Z,27776.00
2023-05-01T09:45:07.309Z,23072.00
2023-05-01T09:46:07.437Z,21536.00
2023-05-01T09:47:07.301Z,23488.00
2023-05-01T09:48:07.415Z,15232.00
2023-05-01T09:49:07.273Z,14400.00
2023-05-01T09:50:07.286Z,19168.00
2023-05-01T09:51:07.252Z,9036.00
2023-05-01T09:52:07.272Z,9596.00
2023-05-01T09:53:07.239Z,9056.00
2023-05-01T09:54:07.218Z,6008.00
2023-05-01T09:55:07.220Z,10148.00
2023-05-01T09:56:07.258Z,12532.00
2023-05-01T09:57:07.199Z,7092.00
2023-05-01T09:58:07.172Z,6688.00
2023-05-01T09:59:07.168Z,9764.00
2023-05-01T10:00:07.194Z,15392.00
2023-05-01T10:01:07.169Z,8020.00
2023-05-01T10:02:07.164Z,10316.00
2023-05-01T10:03:08.593Z,16576.00
2023-05-01T10:04:07.277Z,15968.00
2023-05-01T10:05:07.142Z,9780.00
2023-05-01T10:06:07.107Z,5840.00
2023-05-01T10:07:07.102Z,6764.00
2023-05-01T10:08:07.071Z,5292.00
2023-05-01T10:09:07.079Z,4852.00
2023-05-01T10:10:07.071Z,10644.00
2023-05-01T10:11:07.043Z,5700.00
2023-05-01T10:12:07.022Z,12336.00
2023-05-01T10:13:07.022Z,22208.00
2023-05-01T10:14:06.998Z,48128.00
2023-05-01T10:15:21.101Z,61312.00
2023-05-01T10:16:07.003Z,44160.00
2023-05-01T10:17:07.144Z,34720.00
2023-05-01T10:18:07.005Z,43328.00
2023-05-01T10:19:06.961Z,43584.00
2023-05-01T10:20:06.976Z,32832.00
2023-05-01T10:21:06.961Z,26048.00
2023-05-01T10:22:06.934Z,7604.00
2023-05-01T10:23:06.919Z,21920.00
2023-05-01T10:24:06.922Z,44288.00
2023-05-01T10:25:06.915Z,38208.00
2023-05-01T10:26:07.197Z,0.00
2023-05-01T10:27:06.882Z,47360.00
2023-05-01T10:28:06.865Z,52416.00
2023-05-01T10:29:06.867Z,38208.00
2023-05-01T10:30:06.878Z,41344.00
2023-05-01T10:31:06.852Z,56192.00
2023-05-01T10:32:06.842Z,59072.00
2023-05-01T10:33:06.827Z,62016.00
2023-05-01T10:34:06.795Z,60032.00
2023-05-01T10:35:06.808Z,57632.00
2023-05-01T10:36:06.795Z,60256.00
2023-05-01T10:37:06.774Z,52640.00
2023-05-01T10:38:06.757Z,19552.00
2023-05-01T10:39:06.734Z,28320.00
2023-05-01T10:40:06.753Z,16800.00
2023-05-01T10:41:06.721Z,5308.00
2023-05-01T10:42:06.742Z,16672.00
2023-05-01T10:43:06.691Z,27392.00
2023-05-01T10:44:06.682Z,8724.00
2023-05-01T10:45:06.723Z,4900.00
2023-05-01T10:46:06.715Z,4152.00
2023-05-01T10:47:06.656Z,2664.00
2023-05-01T10:48:06.679Z,4724.00
2023-05-01T10:49:06.631Z,3648.00
2023-05-01T10:50:06.613Z,2688.00
2023-05-01T10:51:06.650Z,2336.00
2023-05-01T10:52:06.615Z,2740.00
2023-05-01T10:53:06.588Z,2256.00
2023-05-01T10:54:06.570Z,8964.00
2023-05-01T10:55:06.569Z,5928.00
2023-05-01T10:56:06.551Z,8472.00
2023-05-01T10:57:06.593Z,10072.00
2023-05-01T10:58:06.538Z,8380.00
2023-05-01T10:59:06.565Z,13020.00
2023-05-01T11:00:06.515Z,12064.00
2023-05-01T11:01:06.501Z,7748.00
2023-05-01T11:02:06.588Z,3120.00
2023-05-01T11:03:06.574Z,3788.00
2023-05-01T11:04:06.463Z,7236.00
2023-05-01T11:05:06.507Z,8004.00
2023-05-01T11:06:06.550Z,9432.00
2023-05-01T11:07:06.509Z,10116.00
2023-05-01T11:08:06.444Z,7408.00
2023-05-01T11:09:06.429Z,5116.00
2023-05-01T11:10:06.402Z,8028.00
2023-05-01T11:11:06.420Z,4180.00
2023-05-01T11:12:06.405Z,2148.00
2023-05-01T11:13:06.376Z,2024.00
2023-05-01T11:14:06.388Z,1904.00
2023-05-01T11:15:06.353Z,1772.00
2023-05-01T11:16:06.357Z,1784.00
2023-05-01T11:17:06.354Z,1840.00
2023-05-01T11:18:06.514Z,1868.00
2023-05-01T11:19:06.314Z,1816.00
2023-05-01T11:20:06.326Z,1756.00
2023-05-01T11:21:06.285Z,1904.00
2023-05-01T11:22:06.270Z,1676.00
2023-05-01T11:23:06.269Z,1432.00
2023-05-01T11:24:06.371Z,1364.00
2023-05-01T11:25:06.236Z,1312.00
2023-05-01T11:26:06.299Z,1224.00
2023-05-01T11:27:06.247Z,1232.00
2023-05-01T11:28:06.207Z,1228.00
2023-05-01T11:29:06.201Z,1092.00
2023-05-01T11:30:06.196Z,1028.00
2023-05-01T11:31:06.174Z,992.00
2023-05-01T11:32:06.283Z,944.00
2023-05-01T11:33:08.361Z,940.00
2023-05-01T11:34:06.153Z,956.00
2023-05-01T11:35:06.164Z,960.00
2023-05-01T11:36:06.147Z,1068.00
2023-05-01T11:37:06.122Z,1308.00
2023-05-01T11:38:06.098Z,1436.00
2023-05-01T11:39:06.140Z,1280.00
2023-05-01T11:40:06.242Z,1248.00
2023-05-01T11:41:06.074Z,1072.00
2023-05-01T11:42:06.085Z,968.00
2023-05-01T11:43:06.078Z,996.00
2023-05-01T11:44:06.059Z,1040.00
2023-05-01T11:45:06.074Z,1052.00
2023-05-01T11:46:06.036Z,936.00
2023-05-01T11:47:06.010Z,924.00
2023-05-01T11:48:06.062Z,928.00
2023-05-01T11:49:06.018Z,940.00
2023-05-01T11:50:06.005Z,988.00
2023-05-01T11:51:05.962Z,1264.00
2023-05-01T11:52:05.952Z,1568.00
2023-05-01T11:53:05.952Z,1280.00
2023-05-01T11:54:05.961Z,1420.00
2023-05-01T11:55:05.940Z,1384.00
2023-05-01T11:56:13.276Z,1172.00
2023-05-01T11:57:06.914Z,1132.00
2023-05-01T11:58:05.915Z,1004.00
2023-05-01T11:59:05.884Z,1040.00
2023-05-01T12:00:05.918Z,1020.00
2023-05-01T12:01:05.886Z,1000.00
2023-05-01T12:02:05.892Z,1024.00
2023-05-01T12:03:06.248Z,976.00
2023-05-01T12:04:05.907Z,984.00
2023-05-01T12:05:05.994Z,1016.00
2023-05-01T12:06:05.914Z,932.00
2023-05-01T12:07:05.803Z,640.00
2023-05-01T12:08:05.784Z,912.00
2023-05-01T12:09:05.792Z,972.00
2023-05-01T12:10:05.778Z,908.00
2023-05-01T12:11:05.772Z,892.00
2023-05-01T12:12:05.784Z,860.00
2023-05-01T12:13:05.738Z,800.00
2023-05-01T12:14:05.739Z,808.00
2023-05-01T12:15:05.712Z,856.00
2023-05-01T12:16:05.728Z,876.00
2023-05-01T12:17:05.828Z,872.00
2023-05-01T12:18:05.883Z,872.00
2023-05-01T12:19:05.663Z,804.00
2023-05-01T12:20:05.661Z,880.00
2023-05-01T12:21:05.647Z,924.00
2023-05-01T12:22:05.637Z,812.00
2023-05-01T12:23:05.648Z,856.00
2023-05-01T12:24:05.614Z,856.00
2023-05-01T12:25:05.610Z,932.00
2023-05-01T12:26:05.601Z,964.00
2023-05-01T12:27:05.586Z,952.00
2023-05-01T12:28:05.611Z,888.00
2023-05-01T12:29:05.564Z,804.00
2023-05-01T12:30:05.568Z,860.00
2023-05-01T12:31:05.707Z,904.00
2023-05-01T12:32:05.629Z,812.00
2023-05-01T12:33:05.574Z,836.00
2023-05-01T12:34:05.501Z,820.00
2023-05-01T12:35:05.528Z,872.00
2023-05-01T12:36:05.486Z,900.00
2023-05-01T12:37:05.577Z,864.00